Details for Ryanair at EGGP




Go Back


Latest METAR
Local Time

EGGP 180620Z 23007KT 9999 BKN028 17/13 Q1017
18/08/2018, 07:29:56

Description
Results
Ryanair Logo
Number of Pilots based at EGGP
0 Pilots Based here
Number of Ryanair Flights Departed from EGGP
16 Flights Departed
Number of Ryanair Flights Arrived at EGGP
18 Flights Arrived
Number of Ryanair Schedules Departing from EGGP
78 Schedules
Number of Ryanair Schedules Arriving at EGGP
79 Schedules
Number of Ryanair Schedules Departing from EGGP availible today
20 Schedules Today
Number of Ryanair Schedules Arriving at EGGP availible today
21 Schedules Today
Average Landing Rate at EGGP
-236 fpm
Ryanair Average Landing Rate at EGGP
-178 fpm
Total Fuel Purchased at EGGP by Ryanair
39,691.60 kgs / 87,504.10 lbs

Pilots Based at EGGP


Pilot ID
Pilot Name
Pilot Rank
No. of Flights
No. of Flying Hours
There are no pilots assigned to this hub!   Will you be the first?
Content